Latest Weather Observations for Julia Creek

IDQ60801

Issued at 4:32 pm EST Sunday 1 March 2015 (issued every 30 minutes, with the page automatically refreshed every 10 minutes)

About weather observations | Map of weather stations | Latest weather observations for QLD | Other Formats
Station Details ID: 029058 Name: JULIA CREEK AIRPORT Lat: -20.67 Lon: 141.72 Height: 122.5 m
Data from the previous 72 hours. | See also: Recent months at Julia Creek
Date/Time
EST
Temp
°C
App
Temp
°C
Dew
Point
Rel
Hum
%
Delta-T
°C
Wind Press
QNH
hPa
Press
MSL
hPa
Rain
since 9 am
mm
Dir
 
Spd
km/h
Gust
km/h
Spd
kts
Gust
kts
01/04:30pm 27.9 25.6 23.3 76 3.2 N 41 52 22 28 1002.2 1001.4 4.2
01/04:22pm 27.2 27.2 23.0 78 2.9 NNE 28 48 15 26 1002.6 1001.8 3.6
01/04:16pm 28.0 29.0 22.9 74 3.5 NE 22 37 12 20 1003.4 1002.6 2.0
01/04:00pm 33.1 32.3 20.9 48 8.3 N 26 43 14 23 1003.3 1002.5 0.0
01/03:41pm 34.5 33.1 21.2 46 9.0 NNE 30 48 16 26 1003.2 1002.4 0.0
01/03:30pm 35.8 35.6 20.5 41 10.3 N 22 28 12 15 1003.4 1002.6 0.0
01/03:19pm 34.1 32.4 19.7 42 9.6 N 28 46 15 25 1003.5 1002.7 0.0
01/03:07pm 34.0 32.8 20.0 43 9.4 N 26 48 14 26 1003.5 1002.7 0.0
01/03:00pm 39.0 38.6 19.3 31 13.2 NW 20 28 11 15 1003.8 1003.0 0.0
01/02:30pm 37.2 37.5 20.5 37 11.3 NW 19 28 10 15 1004.2 1003.4 0.0
01/02:00pm 39.0 38.4 19.8 32 13.0 NW 22 32 12 17 1004.7 1003.9 0.0
01/01:30pm 39.0 39.1 20.3 34 12.7 NW 20 32 11 17 1005.2 1004.4 0.0
01/01:00pm 39.0 38.8 21.2 35 12.2 NW 24 35 13 19 1005.6 1004.7 0.0
01/12:30pm 37.5 36.7 20.8 38 11.4 NNW 26 43 14 23 1006.1 1005.2 0.0
01/12:00pm 38.1 36.8 21.3 37 11.5 NW 30 46 16 25 1006.4 1005.5 0.0
01/11:30am 37.0 36.4 21.9 41 10.4 NW 28 43 15 23 1006.9 1006.1 0.0
01/11:00am 35.9 34.8 21.7 43 9.8 NW 30 46 16 25 1007.4 1006.6 0.0
01/10:30am 34.7 34.7 22.4 48 8.5 NNW 26 35 14 19 1007.7 1006.9 0.0
01/10:00am 34.8 33.9 22.2 48 8.7 NNW 30 39 16 21 1007.7 1006.9 0.0
01/09:30am 33.6 33.2 22.4 52 7.7 NNW 28 37 15 20 1007.8 1006.9 0.0
01/09:00am 32.9 33.1 22.7 55 7.0 NW 26 33 14 18 1007.7 1006.8 0.0
01/08:30am 31.7 33.3 23.2 60 5.9 NNW 20 28 11 15 1007.4 1006.5 0.0
01/08:00am 29.9 31.5 23.3 67 4.6 N 20 26 11 14 1007.4 1006.5 0.0
01/07:30am 28.8 30.6 23.2 71 3.9 N 19 26 10 14 1006.9 1006.0 0.0
01/07:00am 28.0 30.0 22.9 74 3.5 N 17 24 9 13 1006.5 1005.6 0.0
01/06:30am 27.8 29.8 23.0 75 3.3 N 17 24 9 13 1006.0 1005.1 0.0
01/06:00am 28.0 30.0 22.9 74 3.5 N 17 22 9 12 1005.8 1004.9 0.0
01/05:30am 28.2 30.6 22.9 73 3.6 N 15 20 8 11 1005.4 1004.6 0.0
01/05:00am 28.3 30.6 22.8 72 3.8 NNW 15 22 8 12 1005.1 1004.2 0.0
01/04:30am 28.6 30.2 22.8 71 4.0 NNW 19 24 10 13 1004.6 1003.7 0.0
01/04:00am 28.9 30.5 22.9 70 4.1 N 19 24 10 13 1004.3 1003.4 0.0
01/03:30am 29.2 30.6 22.9 69 4.3 NNW 20 28 11 15 1004.1 1003.2 0.0
01/03:00am 29.4 30.2 23.1 69 4.3 NNW 24 35 13 19 1004.0 1003.1 0.0
01/02:30am 30.0 31.6 22.9 65 4.9 NNW 19 24 10 13 1004.1 1003.2 0.0
01/02:00am 30.5 32.3 23.2 65 5.1 NNW 19 24 10 13 1004.1 1003.2 0.0
01/01:30am 30.8 32.4 22.9 62 5.4 N 19 24 10 13 1004.2 1003.3 0.0
01/01:00am 31.1 32.8 22.4 60 6.0 NNW 17 24 9 13 1004.5 1003.6 0.0
01/12:30am 31.6 33.9 22.0 56 6.6 N 13 19 7 10 1004.9 1004.0 0.0
01/12:00am 32.4 33.5 21.9 54 7.2 NNW 19 26 10 14 1005.0 1004.1 0.0
 
Date/Time
EST
Temp
°C
App
Temp
°C
Dew
Point
Rel
Hum
%
Delta-T
°C
Wind Press
QNH
hPa
Press
MSL
hPa
Rain
since 9 am
mm
Dir
 
Spd
km/h
Gust
km/h
Spd
kts
Gust
kts
28/11:30pm 32.9 33.4 22.0 52 7.5 NW 22 32 12 17 1005.2 1004.4 0.0
28/11:00pm 33.5 33.7 22.0 51 7.9 NW 24 33 13 18 1005.1 1004.2 0.0
28/10:30pm 34.0 35.2 21.4 47 8.6 NNW 17 28 9 15 1005.3 1004.5 0.0
28/10:00pm 34.2 35.7 21.3 47 8.8 N 15 19 8 10 1004.9 1004.0 0.0
28/09:00pm 34.6 35.0 20.6 44 9.5 N 19 24 10 13 1003.9 1003.0 0.0
28/08:30pm 34.7 35.7 19.5 40 10.1 N 13 17 7 9 1003.9 1003.0 0.0
28/08:00pm 35.7 35.6 17.9 35 11.7 N 15 20 8 11 1003.2 1002.3 0.0
28/07:30pm 36.6 35.9 18.2 34 12.1 N 19 28 10 15 1002.8 1001.9 0.0
28/07:00pm 37.0 37.1 19.9 36 11.5 N 19 24 10 13 1002.5 1001.6 0.0
28/06:30pm 39.1 38.8 15.5 25 15.1 NW 11 17 6 9 1002.2 1001.3 0.0
28/06:00pm 40.0 38.6 15.6 24 15.7 WNW 17 30 9 16 1001.8 1000.9 0.0
28/05:30pm 40.7 40.3 16.2 24 15.9 NW 13 22 7 12 1001.8 1000.9 0.0
28/05:00pm 40.4 39.5 15.9 23 15.8 WNW 15 32 8 17 1002.1 1001.2 0.0
28/04:30pm 40.9 41.6 17.0 25 15.6 WNW 9 17 5 9 1002.3 1001.4 0.0
28/04:00pm 40.2 38.7 16.4 25 15.5 NW 19 30 10 16 1002.4 1001.5 0.0
28/03:30pm 40.4 40.3 17.8 27 14.9 NW 15 28 8 15 1002.5 1001.6 0.0
28/03:00pm 40.6 39.5 17.3 25 15.3 WNW 19 33 10 18 1002.9 1002.0 0.0
28/02:30pm 40.4 38.9 17.8 27 14.9 NNW 22 32 12 17 1003.2 1002.3 0.0
28/02:00pm 40.2 40.5 18.7 28 14.4 NW 15 33 8 18 1003.5 1002.6 0.0
28/01:30pm 39.0 38.8 19.3 31 13.2 NW 19 35 10 19 1004.0 1003.1 0.0
28/01:00pm 39.3 38.4 19.0 30 13.6 WNW 22 35 12 19 1004.5 1003.6 0.0
28/12:30pm 38.5 38.5 19.8 33 12.6 WNW 19 28 10 15 1004.9 1004.0 0.0
28/12:00pm 37.5 36.8 19.4 34 12.1 WNW 22 33 12 18 1005.4 1004.6 0.0
28/11:30am 36.5 35.2 19.9 38 11.1 WNW 26 37 14 20 1005.9 1005.0 0.0
28/11:00am 36.0 34.0 19.9 39 10.8 WNW 30 41 16 22 1006.4 1005.5 0.0
28/10:30am 35.2 32.8 19.9 40 10.2 NW 32 43 17 23 1006.7 1005.8 0.0
28/10:00am 33.9 31.5 20.3 45 9.1 NW 33 43 18 23 1006.8 1005.9 0.0
28/09:30am 32.8 31.2 20.7 49 8.1 WNW 30 41 16 22 1006.9 1006.0 0.0
28/09:00am 31.4 29.8 21.6 56 6.7 NW 32 37 17 20 1006.7 1005.8 -
28/08:30am 30.3 30.3 21.7 60 5.8 NNW 24 30 13 16 1006.7 1005.8 -
28/08:00am 28.6 28.9 21.6 66 4.7 NNW 22 32 12 17 1006.7 1005.8 -
28/07:30am 26.7 27.8 21.9 75 3.2 N 19 26 10 14 1006.6 1005.7 -
28/07:00am 25.7 27.3 21.4 77 2.9 N 15 20 8 11 1006.4 1005.5 -
28/06:30am 25.3 26.8 21.2 78 2.7 NNW 15 20 8 11 1006.2 1005.3 -
28/06:00am 25.2 26.6 21.1 78 2.7 N 15 19 8 10 1006.3 1005.4 -
28/05:30am 25.2 26.3 21.3 79 2.6 N 17 22 9 12 1006.3 1005.4 -
28/05:00am 25.4 26.0 21.3 78 2.7 N 20 26 11 14 1006.1 1005.2 -
28/04:30am 25.5 26.3 21.4 78 2.7 N 19 24 10 13 1005.4 1004.6 -
28/04:00am 25.7 26.9 21.4 77 2.9 N 17 20 9 11 1005.2 1004.4 -
28/03:30am 26.1 27.1 21.7 77 2.9 N 19 24 10 13 1005.3 1004.5 -
28/03:00am 27.3 28.1 21.8 72 3.7 N 20 28 11 15 1005.3 1004.5 0.0
28/02:30am 28.2 29.5 22.7 72 3.8 N 20 28 11 15 1005.6 1004.7 -
28/02:00am 28.3 30.3 22.3 70 4.1 NNW 15 19 8 10 1005.2 1004.4 -
28/01:30am 28.6 29.9 22.3 68 4.3 NNW 19 28 10 15 1005.3 1004.5 -
28/01:00am 28.9 29.7 22.4 68 4.4 NNW 22 30 12 16 1005.8 1004.9 -
28/12:30am 29.2 30.2 22.2 66 4.8 NNW 20 28 11 15 1006.1 1005.2 -
28/12:00am 29.4 28.8 21.9 64 5.1 NNW 28 35 15 19 1005.9 1005.0 -
 
Date/Time
EST
Temp
°C
App
Temp
°C
Dew
Point
Rel
Hum
%
Delta-T
°C
Wind Press
QNH
hPa
Press
MSL
hPa
Rain
since 9 am
mm
Dir
 
Spd
km/h
Gust
km/h
Spd
kts
Gust
kts
27/11:30pm 29.7 28.1 21.6 61 5.5 NNW 32 43 17 23 1006.2 1005.3 -
27/11:00pm 30.6 28.7 21.4 58 6.2 NNW 33 43 18 23 1006.1 1005.2 -
27/10:30pm 30.6 30.1 22.2 61 5.7 NNW 28 39 15 21 1005.3 1004.5 -
27/10:00pm 30.9 30.7 22.8 62 5.6 NNW 28 37 15 20 1004.8 1003.9 -
27/09:30pm 30.6 30.0 22.7 62 5.4 N 30 39 16 21 1004.7 1003.8 -
27/09:00pm 30.6 29.9 22.5 62 5.6 NNE 30 37 16 20 1004.4 1003.5 -
27/08:30pm 30.9 31.9 22.8 62 5.6 NE 22 33 12 18 1004.4 1003.5 -
27/08:00pm 33.4 34.1 22.2 52 7.7 NNE 22 37 12 20 1003.2 1002.3 -
27/07:30pm 33.9 35.2 18.4 40 10.1 ENE 9 24 5 13 1002.8 1001.9 -
27/07:00pm 37.3 37.3 17.3 30 13.1 NW 13 19 7 10 1002.2 1001.3 -
27/06:30pm 38.2 37.2 17.6 30 13.5 NW 19 26 10 14 1001.9 1001.0 -
27/06:00pm 39.0 38.5 17.7 28 14.0 NW 17 26 9 14 1001.7 1000.8 -
27/05:30pm 38.8 37.4 17.0 27 14.2 WNW 20 33 11 18 1001.3 1000.4 -
27/05:00pm 39.8 38.3 17.8 27 14.6 WNW 22 30 12 16 1001.6 1000.7 -
27/04:30pm 39.3 38.5 18.0 29 14.1 NW 19 26 10 14 1001.3 1000.4 -
27/04:00pm 38.5 37.6 17.8 29 13.6 WNW 19 28 10 15 1001.6 1000.7 -
27/03:30pm 38.1 37.5 17.5 30 13.5 WNW 17 28 9 15 1002.0 1001.1 -
27/06:30am 24.4 27.9 22.8 91 1.1 N 9 9 5 5 1006.0 1005.1 8.8
27/06:00am 24.2 27.9 22.6 91 1.1 N 7 9 4 5 1005.6 1004.7 8.8
27/05:30am 23.7 27.7 22.0 90 1.1 NNW 4 6 2 3 1005.4 1004.6 8.8
27/05:00am 24.6 29.5 22.3 87 1.5 CALM 0 0 0 0 1005.2 1004.4 8.8
27/04:30am 24.8 28.7 22.5 87 1.6 NNE 6 9 3 5 1004.9 1004.0 8.8
27/04:00am 24.8 28.4 22.3 86 1.7 NNE 7 7 4 4 1004.9 1004.0 8.8
27/03:30am 25.2 28.9 22.5 85 1.8 NE 7 7 4 4 1004.9 1004.0 8.8
27/03:00am 25.5 28.7 22.4 83 2.1 NNE 9 9 5 5 1005.1 1004.2 8.8
27/02:30am 25.6 29.2 22.3 82 2.2 NNE 7 9 4 5 1005.0 1004.1 8.8
27/02:00am 25.6 29.2 22.3 82 2.2 NE 7 9 4 5 1005.6 1004.7 8.8
27/01:30am 25.9 29.6 22.2 80 2.5 NNE 6 7 3 4 1005.7 1004.8 8.8
27/01:00am 26.3 29.8 22.2 78 2.8 NNE 7 9 4 5 1005.9 1005.0 8.8
27/12:30am 26.8 30.5 22.2 76 3.1 NE 6 11 3 6 1006.3 1005.4 8.8
27/12:00am 26.5 30.5 22.1 77 3.0 ESE 4 6 2 3 1006.1 1005.2 8.8
 
Date/Time
EST
Temp
°C
App
Temp
°C
Dew
Point
Rel
Hum
%
Delta-T
°C
Wind Press
QNH
hPa
Press
MSL
hPa
Rain
since 9 am
mm
Dir
 
Spd
km/h
Gust
km/h
Spd
kts
Gust
kts
26/11:30pm 26.8 31.4 22.4 77 3.0 E 2 9 1 5 1006.2 1005.3 8.8
26/11:00pm 26.8 31.9 22.6 78 2.9 CALM 0 2 0 1 1006.2 1005.3 8.8
26/10:30pm 26.8 30.1 22.6 78 2.9 N 9 11 5 6 1006.1 1005.2 8.8
26/10:00pm 26.6 30.0 22.7 79 2.7 N 9 13 5 7 1006.0 1005.1 8.8
26/09:30pm 27.1 31.0 22.5 76 3.1 N 6 7 3 4 1006.0 1005.1 8.8
26/09:00pm 27.6 30.9 22.5 74 3.5 NE 9 11 5 6 1005.7 1004.8 8.8
26/08:30pm 27.6 31.2 22.1 72 3.7 NNE 6 6 3 3 1005.0 1004.1 8.8
26/08:00pm 28.1 31.6 22.8 73 3.6 NE 9 19 5 10 1004.8 1003.9 8.8
26/07:30pm 28.5 31.0 22.5 70 4.1 NNE 13 17 7 9 1004.5 1003.6 8.8
26/07:00pm 29.6 31.7 23.1 68 4.5 NNE 17 24 9 13 1004.3 1003.4 8.8
26/06:30pm 30.6 33.6 23.3 65 5.0 N 13 17 7 9 1004.0 1003.1 8.8
26/06:00pm 32.0 35.0 23.3 60 6.1 N 13 19 7 10 1003.6 1002.7 8.8
26/05:30pm 32.0 34.6 23.3 60 6.0 N 15 19 8 10 1003.2 1002.3 8.8
26/05:00pm 30.5 32.8 22.1 61 5.7 NNW 13 19 7 10 1003.5 1002.6 8.8

Other Formats:

Comma delimited format used in spreadsheet applications
http://www.bom.gov.au/fwo/IDQ60801/IDQ60801.94337.axf

JavaScript Object Notation format (JSON) in row-major order
http://www.bom.gov.au/fwo/IDQ60801/IDQ60801.94337.json